Okanogan, WA

6:12 AM PDT on July 28, 2014 (GMT -0700)
Ephrata Municipal (KEPH) Elev 1273 ft | 47.31 °N, 119.52 °W | Change Station

Current weather conditions updated 19 minutes ago

Clear
Clear
72 °F
Feels Like 72 °F
N
7
Wind Variable Wind from North

Today is forecast to be Warmer than yesterday.

Today
High -- | Low -- °F
--% Chance of Precip.
Yesterday
High -- | Low -- °F
Precip. -- in
5:28 AM 8:40 PM
New Moon, 2% visible
Pressure 30.00 in
Visibility 10.0 miles
Clouds Clear
Dew Point 37 °F
Humidity 28%
Rainfall 0.00 in
Snow Depth Not available.
UV 0 out of 12
Pollen 6.80 out of 12
Air Quality Not available.
Flu Activity Not available.
METAR KEPH 281253Z AUTO 35006KT 10SM CLR 22/03 A3003 RMK AO2 SLP158 T02220028

More Conditions Fewer Conditions

Pressure 30.00 in
Visibility 10.0 miles
Clouds Clear
Dew Point 37 °F
Humidity 28%
Rainfall 0.00 in
Snow Depth Not available.
UV 0 out of 12
Pollen 6.80 out of 12
Air Quality Not available.
Flu Activity Not available.
METAR KEPH 281253Z AUTO 35006KT 10SM CLR 22/03 A3003 RMK AO2 SLP158 T02220028

More Conditions Fewer Conditions

10-Day Weather Forecast

Almanac

Astronomy

Jul. 28, 2014 Rise Set
Actual Time 5:28 AM PDT 8:40 PM PDT
Civil Twilight 4:50 AM PDT 9:17 PM PDT
Nautical Twilight 4:01 AM PDT 10:06 PM PDT
Astronomical Twilight 2:59 AM PDT 11:08 PM PDT
Moon 7:27 AM PDT 9:09 PM PDT
Length of Visible Light 16h 27m
Length of Day
15h 12m
Tomorrow will be 2m 37s shorter.
New Moon, 2% of the Moon is Illuminated
Today
New Moon
Aug 3
First Quarter
Aug 10
Full
Aug 17
Last Quarter
Aug 25
New

Today's Extremes

State Highs State Lows

Community

WunderPhotos

Upload Photos

1,738,317 photos uploaded!

Nearby

Snow Depth

Station Depth Elevation
Moses Mountain 1 in 5300 ft
Rainy Pass 0 in 4780 ft
Harts Pass 0 in 6500 ft
Lyman Lake 1 in 5900 ft
Sentinel Butte 1 in 4920 ft

Earthquake Activity

City Distance Mag. Time & Date
No recent earthquake activity has been reported nearby.
Minimum magnitude displayed is 2.5.

Coastal Water Temperatures

Place Temperature
No Stations Reporting

Nearby Weather Stations

Station Location Temp. Windchill Dew Point Humidity Wind Precip. Elev Updated Type
MesoWest OMAK , Omak, WA 60 °F - 45 °F 57% WSW  at  0 mph 0.00 in / hr 1233 ft 5:00 AM PDT MADIS
OKANOGAN / MALOTT, Okanogan, WA 64.6 °F - 38 °F 37% NNE  at  9.6 mph 0.00 in / hr 910 ft 6:12 AM PDT Rapid Fire
Brewster, WA 68.3 °F - 42 °F 38% North  at  4.0 mph 0.00 in / hr 1004 ft 6:12 AM PDT Rapid Fire
South Twisp, Twisp, WA 60.1 °F - 50 °F 70% NNW  at  0.0 mph 0.00 in / hr 1608 ft 6:11 AM PDT Rapid Fire
HADS BONAPARTE CREEK AT TONASKET WA, Tonasket, WA -16 °F -16 °F - - North  at  - 0.00 in / hr 930 ft 5:30 AM PDT MADIS
MesoWest Loup Loup Summit , Malott, WA 56 °F - 34 °F 43% North  at  0 mph 0.00 in / hr 4019 ft 5:15 AM PDT MADIS
RAWS LEECHER WA, Carlton, WA 63 °F - 36 °F 36% NNE  at  6 mph 0.00 in / hr 4991 ft 5:25 AM PDT MADIS

Show More Stations Show Fewer Stations